createdAt,value
2022-11-19T00:01:33.210Z,86.61
2022-11-19T00:04:00.816Z,86.55
2022-11-19T00:06:29.760Z,86.89
2022-11-19T00:08:57.437Z,85.99
2022-11-19T00:11:41.050Z,86.11
2022-11-19T00:14:08.871Z,85.38
2022-11-19T00:16:36.887Z,85.43
2022-11-19T00:19:05.395Z,85.33
2022-11-19T00:21:34.635Z,85.31
2022-11-19T00:24:02.310Z,85.03
2022-11-19T00:26:30.006Z,85.13
2022-11-19T00:28:57.970Z,85.17
2022-11-19T00:31:25.815Z,85.33
2022-11-19T00:33:54.666Z,85.74
2022-11-19T00:36:23.008Z,85.54
2022-11-19T00:38:52.016Z,85.66
2022-11-19T00:41:20.540Z,86.03
2022-11-19T00:43:48.516Z,85.99
2022-11-19T00:46:17.916Z,86.19
2022-11-19T00:48:45.895Z,86.13
2022-11-19T00:51:14.098Z,86.16
2022-11-19T00:53:41.736Z,85.59
2022-11-19T00:56:12.815Z,85.60
2022-11-19T00:58:40.829Z,85.54
2022-11-19T01:01:09.847Z,86.45
2022-11-19T01:03:38.593Z,85.78
2022-11-19T01:06:07.554Z,86.15
2022-11-19T01:08:35.429Z,85.96
2022-11-19T01:11:07.116Z,85.98
2022-11-19T01:13:37.313Z,86.00
2022-11-19T01:16:08.443Z,85.61
2022-11-19T01:18:37.034Z,85.78
2022-11-19T01:21:05.780Z,86.24
2022-11-19T01:23:33.947Z,86.37
2022-11-19T01:26:03.451Z,86.84
2022-11-19T01:28:31.428Z,86.88
2022-11-19T01:31:00.933Z,86.95
2022-11-19T01:33:29.125Z,86.60
2022-11-19T01:35:58.490Z,87.09
2022-11-19T01:38:27.039Z,87.08
2022-11-19T01:40:54.787Z,86.99
2022-11-19T01:43:41.159Z,86.94
2022-11-19T01:46:11.407Z,86.76
2022-11-19T01:48:41.912Z,86.43
2022-11-19T01:51:12.956Z,87.03
2022-11-19T01:53:41.816Z,86.83
2022-11-19T01:56:10.781Z,87.20
2022-11-19T01:58:42.122Z,86.68
2022-11-19T02:01:11.925Z,86.82
2022-11-19T02:03:40.931Z,86.83
2022-11-19T02:06:09.332Z,87.06
2022-11-19T02:08:41.399Z,87.23
2022-11-19T02:11:27.423Z,87.71
2022-11-19T02:14:04.148Z,87.77
2022-11-19T02:16:43.699Z,87.73
2022-11-19T02:19:25.841Z,87.59
2022-11-19T02:22:02.545Z,87.82
2022-11-19T02:24:49.594Z,88.04
2022-11-19T02:27:59.024Z,87.74
2022-11-19T02:30:34.322Z,87.74
2022-11-19T02:33:07.633Z,87.90
2022-11-19T02:35:45.299Z,87.89
2022-11-19T02:38:24.012Z,87.60
2022-11-19T02:40:57.743Z,87.18
2022-11-19T02:43:32.675Z,87.13
2022-11-19T02:46:07.512Z,86.93
2022-11-19T02:48:39.223Z,88.30
2022-11-19T02:51:09.045Z,87.60
2022-11-19T02:53:37.069Z,87.62
2022-11-19T02:56:13.569Z,87.83
2022-11-19T02:59:02.439Z,88.25
2022-11-19T03:02:06.186Z,87.43
2022-11-19T03:04:34.112Z,87.76
2022-11-19T03:07:06.364Z,87.91
2022-11-19T03:09:37.530Z,87.60
2022-11-19T03:12:12.313Z,87.53
2022-11-19T03:15:07.125Z,87.86
2022-11-19T03:17:49.323Z,87.79
2022-11-19T03:20:23.541Z,88.17
2022-11-19T03:22:55.452Z,88.05
2022-11-19T03:25:29.836Z,88.06
2022-11-19T03:28:03.084Z,87.88
2022-11-19T03:30:31.688Z,88.20
2022-11-19T03:33:04.760Z,88.12
2022-11-19T03:35:37.742Z,88.15
2022-11-19T03:38:09.401Z,88.03
2022-11-19T03:40:38.092Z,88.05
2022-11-19T03:43:09.263Z,87.70
2022-11-19T03:45:41.348Z,87.54
2022-11-19T03:48:12.396Z,87.43
2022-11-19T03:50:48.632Z,87.69
2022-11-19T03:53:16.700Z,87.65
2022-11-19T03:55:47.981Z,87.02
2022-11-19T03:58:15.975Z,86.95
2022-11-19T04:00:44.693Z,86.05
2022-11-19T04:03:13.728Z,87.12
2022-11-19T04:05:41.337Z,85.86
2022-11-19T04:08:08.943Z,85.44
2022-11-19T04:10:37.017Z,84.46
2022-11-19T04:13:04.912Z,84.88
2022-11-19T04:15:32.539Z,85.86
2022-11-19T04:18:01.247Z,86.04
2022-11-19T04:20:30.388Z,86.39
2022-11-19T04:22:58.035Z,85.69
2022-11-19T04:25:25.683Z,85.62
2022-11-19T04:27:53.382Z,85.88
2022-11-19T04:30:21.456Z,85.35
2022-11-19T04:32:49.216Z,86.23
2022-11-19T04:35:18.159Z,85.12
2022-11-19T04:37:47.230Z,85.46
2022-11-19T04:40:14.900Z,85.38
2022-11-19T04:42:42.508Z,85.77
2022-11-19T04:45:11.576Z,86.41
2022-11-19T04:47:39.397Z,86.90
2022-11-19T04:50:08.153Z,85.95
2022-11-19T04:52:40.612Z,85.88
2022-11-19T04:55:11.511Z,86.04
2022-11-19T04:57:39.611Z,87.02
2022-11-19T05:00:09.097Z,87.01
2022-11-19T05:02:36.961Z,87.02
2022-11-19T05:05:05.031Z,87.33
2022-11-19T05:07:32.730Z,88.29
2022-11-19T05:10:00.412Z,87.01
2022-11-19T05:12:29.404Z,86.12
2022-11-19T05:14:57.174Z,85.15
2022-11-19T05:17:24.863Z,85.60
2022-11-19T05:19:52.492Z,86.84
2022-11-19T05:22:20.103Z,86.23
2022-11-19T05:24:47.816Z,86.30
2022-11-19T05:27:15.895Z,86.20
2022-11-19T05:29:44.953Z,85.90
2022-11-19T05:32:12.686Z,86.40
2022-11-19T05:34:40.339Z,86.62
2022-11-19T05:37:08.001Z,86.62
2022-11-19T05:39:35.852Z,88.46
2022-11-19T05:42:03.541Z,88.42
2022-11-19T05:44:31.210Z,87.69
2022-11-19T05:47:00.145Z,87.25
2022-11-19T05:49:27.852Z,87.76
2022-11-19T05:51:55.462Z,88.91
2022-11-19T05:54:23.197Z,87.85
2022-11-19T05:56:52.073Z,88.39
2022-11-19T05:59:20.597Z,89.06
2022-11-19T06:01:48.677Z,88.78
2022-11-19T06:04:17.719Z,88.42
2022-11-19T06:06:45.514Z,88.04
2022-11-19T06:09:13.160Z,88.24
2022-11-19T06:11:50.484Z,87.90
2022-11-19T06:14:22.187Z,89.11
2022-11-19T06:16:50.098Z,90.62
2022-11-19T06:19:19.667Z,90.30
2022-11-19T06:21:48.071Z,89.08
2022-11-19T06:24:16.151Z,89.05
2022-11-19T06:26:44.246Z,89.04
2022-11-19T06:29:14.344Z,88.41
2022-11-19T06:31:42.121Z,90.37
2022-11-19T06:34:10.260Z,90.05
2022-11-19T06:36:42.953Z,89.24
2022-11-19T06:39:12.646Z,89.97
2022-11-19T06:41:40.250Z,89.10
2022-11-19T06:44:07.941Z,88.82
2022-11-19T06:46:35.715Z,88.70
2022-11-19T06:49:05.599Z,87.97
2022-11-19T06:51:33.301Z,89.11
2022-11-19T06:54:02.235Z,88.10
2022-11-19T06:56:29.912Z,88.24
2022-11-19T06:58:59.072Z,89.39
2022-11-19T07:01:27.001Z,89.43
2022-11-19T07:03:54.715Z,89.20
2022-11-19T07:06:22.378Z,88.54
2022-11-19T07:08:50.028Z,88.57
2022-11-19T07:11:27.840Z,88.55
2022-11-19T07:13:59.485Z,87.75
2022-11-19T07:16:30.434Z,88.36
2022-11-19T07:18:59.812Z,88.06
2022-11-19T07:21:28.056Z,88.08
2022-11-19T07:23:55.850Z,90.27
2022-11-19T07:26:25.287Z,90.36
2022-11-19T07:28:53.001Z,90.34
2022-11-19T07:31:21.023Z,90.07
2022-11-19T07:33:48.928Z,90.74
2022-11-19T07:36:18.631Z,90.07
2022-11-19T07:38:47.146Z,90.00
2022-11-19T07:41:40.681Z,90.40
2022-11-19T07:44:09.874Z,89.76
2022-11-19T07:46:37.488Z,89.63
2022-11-19T07:49:05.300Z,90.88
2022-11-19T07:51:33.001Z,91.12
2022-11-19T07:54:00.626Z,91.46
2022-11-19T07:56:28.753Z,91.63
2022-11-19T07:58:56.402Z,90.04
2022-11-19T08:01:25.605Z,89.39
2022-11-19T08:03:56.796Z,89.50
2022-11-19T08:06:28.423Z,88.99
2022-11-19T08:08:56.682Z,88.72
2022-11-19T08:11:25.290Z,89.71
2022-11-19T08:13:53.094Z,90.55
2022-11-19T08:16:34.702Z,89.58
2022-11-19T08:19:07.104Z,89.38
2022-11-19T08:21:34.783Z,88.37
2022-11-19T08:24:02.520Z,87.98
2022-11-19T08:26:31.487Z,88.06
2022-11-19T08:28:59.240Z,90.93
2022-11-19T08:31:28.099Z,90.30
2022-11-19T08:33:55.785Z,90.47
2022-11-19T08:36:24.882Z,89.74
2022-11-19T08:38:52.510Z,90.28
2022-11-19T08:41:37.636Z,91.66
2022-11-19T08:44:05.891Z,91.59
2022-11-19T08:46:33.482Z,90.19
2022-11-19T08:49:01.351Z,89.65
2022-11-19T08:51:30.356Z,89.51
2022-11-19T08:53:58.179Z,89.85
2022-11-19T08:56:26.477Z,90.53
2022-11-19T08:58:59.852Z,90.77
2022-11-19T09:01:30.111Z,91.25
2022-11-19T09:04:01.163Z,90.42
2022-11-19T09:06:30.246Z,90.70
2022-11-19T09:08:58.363Z,91.59
2022-11-19T09:11:26.218Z,91.43
2022-11-19T09:13:53.950Z,90.83
2022-11-19T09:16:21.628Z,90.90
2022-11-19T09:18:49.267Z,91.48
2022-11-19T09:21:16.987Z,90.26
2022-11-19T09:23:45.952Z,90.04
2022-11-19T09:26:15.675Z,91.68
2022-11-19T09:28:44.026Z,90.33
2022-11-19T09:31:14.577Z,88.79
2022-11-19T09:33:43.748Z,90.37
2022-11-19T09:36:12.659Z,89.83
2022-11-19T09:38:40.924Z,89.74
2022-11-19T09:41:32.804Z,90.57
2022-11-19T09:44:13.549Z,91.11
2022-11-19T09:46:47.523Z,90.81
2022-11-19T09:49:23.175Z,90.10
2022-11-19T09:51:58.658Z,89.83
2022-11-19T09:54:27.440Z,89.78
2022-11-19T09:57:00.478Z,89.62
2022-11-19T09:59:35.181Z,90.02
2022-11-19T10:02:05.144Z,91.86
2022-11-19T10:04:33.399Z,91.71
2022-11-19T10:07:11.431Z,89.55
2022-11-19T10:10:00.356Z,89.06
2022-11-19T10:12:54.216Z,88.77
2022-11-19T10:15:33.127Z,88.92
2022-11-19T10:18:13.360Z,89.56
2022-11-19T10:21:04.022Z,89.73
2022-11-19T10:23:43.494Z,88.80
2022-11-19T10:26:14.983Z,88.69
2022-11-19T10:28:51.300Z,88.86
2022-11-19T10:31:28.610Z,89.30
2022-11-19T10:34:02.706Z,89.13
2022-11-19T10:36:35.218Z,89.42
2022-11-19T10:39:07.675Z,88.86
2022-11-19T10:41:42.459Z,89.88
2022-11-19T10:44:35.195Z,89.66
2022-11-19T10:47:03.484Z,88.48
2022-11-19T10:49:31.383Z,91.10
2022-11-19T10:51:59.420Z,90.50
2022-11-19T10:54:29.707Z,90.73
2022-11-19T10:56:59.743Z,90.44
2022-11-19T10:59:31.571Z,89.77
2022-11-19T11:02:03.424Z,91.75
2022-11-19T11:04:31.572Z,90.08
2022-11-19T11:07:02.445Z,90.07
2022-11-19T11:09:35.962Z,88.86
2022-11-19T11:12:30.408Z,88.62
2022-11-19T11:15:02.901Z,89.26
2022-11-19T11:17:35.081Z,89.83
2022-11-19T11:20:06.886Z,88.91
2022-11-19T11:22:36.783Z,89.36
2022-11-19T11:25:07.493Z,88.72
2022-11-19T11:27:36.765Z,88.70
2022-11-19T11:30:18.907Z,89.42
2022-11-19T11:32:47.311Z,89.71
2022-11-19T11:35:32.604Z,89.39
2022-11-19T11:38:01.328Z,90.01
2022-11-19T11:40:30.052Z,89.76
2022-11-19T11:42:58.513Z,88.99
2022-11-19T11:45:32.415Z,87.90
2022-11-19T11:48:05.839Z,86.02
2022-11-19T11:50:33.566Z,88.61
2022-11-19T11:53:09.820Z,88.43
2022-11-19T11:55:38.587Z,87.41
2022-11-19T11:58:24.330Z,89.55
2022-11-19T12:00:55.244Z,86.92
2022-11-19T12:03:23.180Z,87.70
2022-11-19T12:06:02.017Z,86.91
2022-11-19T12:08:49.902Z,89.33
2022-11-19T12:11:23.976Z,88.48
2022-11-19T12:13:57.726Z,89.16
2022-11-19T12:16:40.388Z,88.90
2022-11-19T12:19:25.424Z,88.79
2022-11-19T12:22:01.653Z,90.06
2022-11-19T12:24:42.224Z,90.21
2022-11-19T12:27:20.817Z,88.89
2022-11-19T12:30:00.188Z,89.08
2022-11-19T12:33:08.073Z,90.24
2022-11-19T12:35:44.365Z,88.57
2022-11-19T12:38:36.576Z,90.17
2022-11-19T12:41:19.419Z,91.00
2022-11-19T12:43:54.652Z,90.84
2022-11-19T12:46:32.312Z,90.08
2022-11-19T12:49:35.460Z,91.42
2022-11-19T12:52:16.220Z,91.22
2022-11-19T12:54:53.728Z,89.16
2022-11-19T12:57:39.607Z,89.55
2022-11-19T13:00:13.967Z,90.27
2022-11-19T13:02:49.384Z,89.80
2022-11-19T13:05:22.252Z,91.05
2022-11-19T13:07:55.384Z,91.04
2022-11-19T13:10:26.325Z,91.28
2022-11-19T13:12:56.828Z,91.24
2022-11-19T13:15:29.190Z,91.57
2022-11-19T13:18:00.872Z,92.15
2022-11-19T13:20:40.810Z,91.58
2022-11-19T13:23:13.947Z,91.50
2022-11-19T13:25:45.362Z,91.13
2022-11-19T13:28:23.470Z,90.61
2022-11-19T13:30:53.738Z,89.45
2022-11-19T13:33:26.470Z,88.88
2022-11-19T13:36:06.464Z,89.08
2022-11-19T13:38:45.094Z,89.46
2022-11-19T13:41:17.280Z,88.51
2022-11-19T13:44:14.326Z,89.11
2022-11-19T13:46:45.197Z,89.22
2022-11-19T13:49:19.663Z,89.56
2022-11-19T13:51:50.884Z,89.80
2022-11-19T13:54:26.084Z,89.98
2022-11-19T13:56:56.988Z,90.16
2022-11-19T13:59:32.315Z,90.43
2022-11-19T14:02:32.390Z,89.10
2022-11-19T14:05:28.700Z,89.98
2022-11-19T14:08:19.511Z,89.76
2022-11-19T14:11:04.035Z,89.81
2022-11-19T14:13:46.397Z,90.16
2022-11-19T14:16:43.765Z,89.15
2022-11-19T14:19:32.806Z,88.72
2022-11-19T14:22:18.570Z,89.80
2022-11-19T14:25:17.289Z,90.07
2022-11-19T14:27:46.507Z,90.38
2022-11-19T14:30:19.874Z,90.21
2022-11-19T14:32:51.188Z,91.14
2022-11-19T14:35:34.700Z,91.81
2022-11-19T14:38:36.586Z,89.98
2022-11-19T14:41:23.200Z,87.92
2022-11-19T14:44:11.522Z,88.30
2022-11-19T14:46:46.479Z,89.32
2022-11-19T14:49:32.877Z,89.84
2022-11-19T14:52:01.448Z,89.71
2022-11-19T14:54:38.116Z,89.65
2022-11-19T14:57:17.187Z,89.97
2022-11-19T14:59:52.092Z,91.57
2022-11-19T15:02:29.837Z,90.03
2022-11-19T15:05:08.514Z,90.98
2022-11-19T15:07:40.343Z,90.52
2022-11-19T15:10:33.761Z,90.28
2022-11-19T15:13:28.238Z,89.59
2022-11-19T15:15:58.872Z,90.48
2022-11-19T15:19:11.057Z,89.43
2022-11-19T15:21:59.658Z,88.92
2022-11-19T15:24:45.888Z,89.36
2022-11-19T15:27:20.991Z,89.90
2022-11-19T15:30:06.667Z,90.69
2022-11-19T15:32:55.241Z,90.30
2022-11-19T15:35:39.331Z,90.24
2022-11-19T15:38:20.237Z,90.99
2022-11-19T15:40:50.862Z,91.32
2022-11-19T15:43:26.505Z,90.82
2022-11-19T15:46:01.236Z,91.31
2022-11-19T15:48:36.379Z,90.79
2022-11-19T15:51:05.270Z,91.67
2022-11-19T15:53:33.552Z,91.12
2022-11-19T15:56:04.656Z,90.73
2022-11-19T15:58:37.728Z,89.63
2022-11-19T16:01:09.780Z,89.98
2022-11-19T16:03:39.564Z,90.13
2022-11-19T16:06:11.615Z,91.11
2022-11-19T16:08:39.514Z,90.55
2022-11-19T16:11:25.122Z,92.30
2022-11-19T16:14:11.279Z,92.92
2022-11-19T16:16:58.523Z,91.78
2022-11-19T16:19:26.466Z,91.28
2022-11-19T16:21:58.451Z,91.96
2022-11-19T16:24:46.349Z,91.87
2022-11-19T16:27:21.429Z,91.28
2022-11-19T16:29:49.161Z,91.13
2022-11-19T16:32:20.838Z,89.90
2022-11-19T16:34:48.870Z,89.92
2022-11-19T16:37:18.320Z,90.09
2022-11-19T16:39:53.477Z,90.79
2022-11-19T16:42:26.774Z,91.52
2022-11-19T16:44:56.279Z,91.26
2022-11-19T16:47:30.077Z,91.69
2022-11-19T16:50:01.776Z,91.70
2022-11-19T16:52:40.130Z,90.90
2022-11-19T16:55:42.742Z,91.30
2022-11-19T16:58:17.718Z,91.33
2022-11-19T17:00:51.234Z,91.07
2022-11-19T17:03:39.477Z,91.36
2022-11-19T17:06:09.681Z,92.87
2022-11-19T17:08:38.930Z,91.36
2022-11-19T17:11:39.765Z,91.08
2022-11-19T17:14:24.650Z,90.52
2022-11-19T17:16:55.501Z,91.27
2022-11-19T17:19:32.408Z,91.83
2022-11-19T17:22:02.332Z,91.00
2022-11-19T17:24:32.791Z,92.24
2022-11-19T17:27:01.105Z,91.54
2022-11-19T17:29:28.819Z,91.28
2022-11-19T17:31:57.384Z,92.91
2022-11-19T17:34:32.258Z,91.70
2022-11-19T17:37:00.208Z,91.91
2022-11-19T17:39:28.005Z,90.94
2022-11-19T17:42:14.671Z,89.99
2022-11-19T17:44:42.728Z,89.79
2022-11-19T17:47:22.408Z,89.38
2022-11-19T17:49:52.694Z,89.35
2022-11-19T17:52:25.303Z,89.52
2022-11-19T17:54:54.763Z,89.27
2022-11-19T17:57:22.860Z,90.21
2022-11-19T17:59:50.645Z,90.27
2022-11-19T18:02:20.350Z,90.83
2022-11-19T18:04:49.240Z,90.54
2022-11-19T18:07:18.316Z,90.47
2022-11-19T18:09:46.309Z,89.45
2022-11-19T18:12:16.213Z,89.89
2022-11-19T18:14:44.269Z,89.31
2022-11-19T18:17:12.901Z,91.61
2022-11-19T18:19:40.535Z,90.55
2022-11-19T18:22:16.864Z,89.24
2022-11-19T18:24:47.451Z,89.41
2022-11-19T18:27:15.507Z,89.24
2022-11-19T18:29:46.244Z,89.69
2022-11-19T18:32:16.686Z,90.04
2022-11-19T18:34:44.783Z,90.74
2022-11-19T18:37:12.820Z,90.43
2022-11-19T18:39:41.516Z,90.43
2022-11-19T18:42:12.513Z,91.40
2022-11-19T18:44:41.625Z,92.00
2022-11-19T18:47:11.260Z,92.14
2022-11-19T18:49:39.490Z,90.98
2022-11-19T18:52:08.914Z,89.98
2022-11-19T18:54:37.000Z,90.67
2022-11-19T18:57:05.141Z,90.50
2022-11-19T18:59:34.268Z,90.71
2022-11-19T19:02:02.217Z,90.42
2022-11-19T19:04:30.161Z,88.63
2022-11-19T19:06:59.271Z,89.45
2022-11-19T19:09:27.215Z,89.41
2022-11-19T19:12:13.737Z,90.33
2022-11-19T19:14:44.282Z,90.24
2022-11-19T19:17:12.440Z,90.10
2022-11-19T19:19:40.322Z,87.38
2022-11-19T19:22:08.763Z,89.87
2022-11-19T19:24:36.803Z,92.96
2022-11-19T19:27:05.382Z,90.96
2022-11-19T19:29:33.115Z,92.18
2022-11-19T19:32:02.393Z,92.29
2022-11-19T19:34:30.900Z,90.35
2022-11-19T19:36:58.656Z,90.62
2022-11-19T19:39:26.396Z,91.42
2022-11-19T19:41:54.129Z,90.73
2022-11-19T19:44:21.831Z,89.53
2022-11-19T19:46:49.754Z,89.45
2022-11-19T19:49:19.534Z,87.66
2022-11-19T19:51:48.140Z,88.85
2022-11-19T19:54:15.933Z,88.61
2022-11-19T19:56:43.857Z,89.48
2022-11-19T19:59:13.760Z,89.29
2022-11-19T20:01:44.685Z,88.54
2022-11-19T20:04:12.824Z,88.34
2022-11-19T20:06:46.221Z,88.66
2022-11-19T20:09:14.206Z,87.36
2022-11-19T20:11:42.037Z,89.10
2022-11-19T20:14:10.834Z,90.16
2022-11-19T20:16:41.387Z,88.72
2022-11-19T20:19:12.848Z,89.08
2022-11-19T20:21:42.036Z,88.96
2022-11-19T20:24:12.879Z,88.28
2022-11-19T20:26:41.968Z,87.59
2022-11-19T20:29:12.676Z,90.49
2022-11-19T20:31:40.809Z,90.26
2022-11-19T20:34:08.505Z,89.95
2022-11-19T20:36:37.098Z,91.55
2022-11-19T20:39:07.326Z,91.78
2022-11-19T20:41:53.103Z,89.87
2022-11-19T20:44:22.351Z,90.62
2022-11-19T20:46:52.427Z,89.66
2022-11-19T20:49:22.564Z,88.82
2022-11-19T20:51:51.526Z,90.09
2022-11-19T20:54:21.816Z,90.47
2022-11-19T20:56:49.846Z,89.99
2022-11-19T20:59:17.792Z,90.17
2022-11-19T21:01:45.957Z,89.96
2022-11-19T21:04:13.783Z,89.39
2022-11-19T21:06:41.639Z,89.62
2022-11-19T21:09:09.599Z,88.98
2022-11-19T21:11:38.716Z,89.21
2022-11-19T21:14:06.516Z,88.47
2022-11-19T21:16:34.250Z,87.94
2022-11-19T21:19:02.212Z,88.69
2022-11-19T21:21:30.082Z,88.17
2022-11-19T21:23:57.796Z,88.66
2022-11-19T21:26:28.072Z,89.90
2022-11-19T21:28:58.481Z,89.30
2022-11-19T21:31:38.036Z,90.11
2022-11-19T21:34:06.789Z,89.24
2022-11-19T21:36:35.023Z,88.13
2022-11-19T21:39:02.901Z,90.53
2022-11-19T21:41:30.739Z,86.73
2022-11-19T21:44:00.129Z,87.76
2022-11-19T21:46:27.949Z,88.10
2022-11-19T21:48:55.774Z,88.60
2022-11-19T21:51:25.179Z,88.34
2022-11-19T21:53:55.104Z,87.18
2022-11-19T21:56:22.995Z,87.83
2022-11-19T21:58:50.926Z,88.53
2022-11-19T22:01:20.443Z,88.95
2022-11-19T22:03:48.790Z,88.16
2022-11-19T22:06:16.662Z,87.85
2022-11-19T22:08:44.429Z,86.82
2022-11-19T22:11:31.849Z,88.33
2022-11-19T22:14:02.033Z,85.75
2022-11-19T22:16:36.732Z,85.31
2022-11-19T22:19:05.572Z,84.66
2022-11-19T22:21:34.086Z,85.68
2022-11-19T22:24:02.227Z,84.87
2022-11-19T22:26:30.579Z,84.77
2022-11-19T22:28:58.622Z,85.26
2022-11-19T22:31:26.927Z,85.37
2022-11-19T22:33:56.298Z,85.77
2022-11-19T22:36:24.500Z,87.61
2022-11-19T22:38:52.927Z,86.94
2022-11-19T22:41:22.236Z,88.27
2022-11-19T22:43:50.298Z,88.80
2022-11-19T22:46:19.246Z,90.97
2022-11-19T22:48:47.953Z,88.30
2022-11-19T22:51:20.085Z,86.89
2022-11-19T22:53:48.581Z,88.40
2022-11-19T22:56:18.124Z,89.43
2022-11-19T22:58:46.316Z,87.46
2022-11-19T23:01:17.805Z,88.56
2022-11-19T23:03:45.825Z,87.94
2022-11-19T23:06:13.546Z,88.49
2022-11-19T23:08:42.769Z,87.61
2022-11-19T23:11:10.619Z,86.81
2022-11-19T23:13:39.448Z,86.30
2022-11-19T23:16:09.912Z,85.56
2022-11-19T23:18:39.553Z,85.57
2022-11-19T23:21:09.792Z,86.44
2022-11-19T23:23:37.984Z,85.76
2022-11-19T23:26:08.966Z,86.83
2022-11-19T23:28:37.850Z,87.07
2022-11-19T23:31:07.668Z,87.02
2022-11-19T23:33:35.388Z,87.54
2022-11-19T23:36:04.643Z,86.82
2022-11-19T23:38:32.739Z,87.61
2022-11-19T23:41:00.925Z,88.46
2022-11-19T23:43:30.488Z,88.28
2022-11-19T23:46:04.950Z,88.87
2022-11-19T23:48:32.846Z,89.79
2022-11-19T23:51:02.215Z,89.30
2022-11-19T23:53:29.908Z,88.77
2022-11-19T23:55:57.906Z,88.30
2022-11-19T23:58:25.696Z,88.22
